sensor_id;sensor_type;location;lat;lon;timestamp;temperature;humidity
78325;DHT22;67584;51.400;6.692;2023-12-04T00:01:08;0.20;82.50
78325;DHT22;67584;51.400;6.692;2023-12-04T00:03:34;0.40;82.80
78325;DHT22;67584;51.400;6.692;2023-12-04T00:06:00;0.10;82.60
78325;DHT22;67584;51.400;6.692;2023-12-04T00:08:25;0.20;82.70
78325;DHT22;67584;51.400;6.692;2023-12-04T00:10:51;0.50;82.90
78325;DHT22;67584;51.400;6.692;2023-12-04T00:13:17;0.50;82.60
78325;DHT22;67584;51.400;6.692;2023-12-04T00:15:44;0.40;82.80
78325;DHT22;67584;51.400;6.692;2023-12-04T00:18:09;0.50;82.00
78325;DHT22;67584;51.400;6.692;2023-12-04T00:20:35;0.30;82.40
78325;DHT22;67584;51.400;6.692;2023-12-04T00:23:02;0.40;82.50
78325;DHT22;67584;51.400;6.692;2023-12-04T00:25:28;0.50;82.40
78325;DHT22;67584;51.400;6.692;2023-12-04T00:27:53;0.30;82.30
78325;DHT22;67584;51.400;6.692;2023-12-04T00:30:19;0.70;81.90
78325;DHT22;67584;51.400;6.692;2023-12-04T00:32:45;0.40;81.80
78325;DHT22;67584;51.400;6.692;2023-12-04T00:35:11;0.60;81.90
78325;DHT22;67584;51.400;6.692;2023-12-04T00:37:36;0.60;81.80
78325;DHT22;67584;51.400;6.692;2023-12-04T00:40:05;0.60;81.40
78325;DHT22;67584;51.400;6.692;2023-12-04T00:42:31;0.50;81.40
78325;DHT22;67584;51.400;6.692;2023-12-04T00:44:57;0.30;81.60
78325;DHT22;67584;51.400;6.692;2023-12-04T00:47:22;0.40;81.50
78325;DHT22;67584;51.400;6.692;2023-12-04T00:49:48;0.10;81.30
78325;DHT22;67584;51.400;6.692;2023-12-04T00:52:14;0.30;81.40
78325;DHT22;67584;51.400;6.692;2023-12-04T00:54:40;0.50;81.30
78325;DHT22;67584;51.400;6.692;2023-12-04T00:57:08;0.40;81.40
78325;DHT22;67584;51.400;6.692;2023-12-04T00:59:34;0.40;81.10
78325;DHT22;67584;51.400;6.692;2023-12-04T01:01:59;0.30;80.60
78325;DHT22;67584;51.400;6.692;2023-12-04T01:04:25;0.40;80.40
78325;DHT22;67584;51.400;6.692;2023-12-04T01:06:51;0.40;80.70
78325;DHT22;67584;51.400;6.692;2023-12-04T01:09:17;0.50;80.70
78325;DHT22;67584;51.400;6.692;2023-12-04T01:11:43;0.40;80.60
78325;DHT22;67584;51.400;6.692;2023-12-04T01:14:09;0.30;80.80
78325;DHT22;67584;51.400;6.692;2023-12-04T01:16:34;0.40;80.10
78325;DHT22;67584;51.400;6.692;2023-12-04T01:19:00;0.50;80.20
78325;DHT22;67584;51.400;6.692;2023-12-04T01:21:26;0.40;80.20
78325;DHT22;67584;51.400;6.692;2023-12-04T01:23:51;0.40;79.90
78325;DHT22;67584;51.400;6.692;2023-12-04T01:26:17;0.30;80.10
78325;DHT22;67584;51.400;6.692;2023-12-04T01:28:43;0.30;80.20
78325;DHT22;67584;51.400;6.692;2023-12-04T01:31:08;0.40;79.60
78325;DHT22;67584;51.400;6.692;2023-12-04T01:33:34;0.30;79.60
78325;DHT22;67584;51.400;6.692;2023-12-04T01:36:01;0.50;79.60
78325;DHT22;67584;51.400;6.692;2023-12-04T01:38:27;0.50;79.40
78325;DHT22;67584;51.400;6.692;2023-12-04T01:40:53;0.60;79.60
78325;DHT22;67584;51.400;6.692;2023-12-04T01:43:18;0.60;79.50
78325;DHT22;67584;51.400;6.692;2023-12-04T01:45:44;0.50;79.10
78325;DHT22;67584;51.400;6.692;2023-12-04T01:48:11;0.50;79.20
78325;DHT22;67584;51.400;6.692;2023-12-04T01:50:39;0.50;79.40
78325;DHT22;67584;51.400;6.692;2023-12-04T01:53:04;0.40;79.10
78325;DHT22;67584;51.400;6.692;2023-12-04T01:55:33;0.50;79.10
78325;DHT22;67584;51.400;6.692;2023-12-04T01:58:00;0.60;78.80
78325;DHT22;67584;51.400;6.692;2023-12-04T02:00:27;0.60;78.30
78325;DHT22;67584;51.400;6.692;2023-12-04T02:02:52;0.50;78.70
78325;DHT22;67584;51.400;6.692;2023-12-04T02:05:19;0.60;78.50
78325;DHT22;67584;51.400;6.692;2023-12-04T02:07:46;0.40;78.30
78325;DHT22;67584;51.400;6.692;2023-12-04T02:10:12;0.50;78.60
78325;DHT22;67584;51.400;6.692;2023-12-04T02:12:38;0.40;78.10
78325;DHT22;67584;51.400;6.692;2023-12-04T02:15:04;0.50;78.40
78325;DHT22;67584;51.400;6.692;2023-12-04T02:17:30;0.60;78.10
78325;DHT22;67584;51.400;6.692;2023-12-04T02:19:56;0.60;78.20
78325;DHT22;67584;51.400;6.692;2023-12-04T02:22:22;0.50;78.10
78325;DHT22;67584;51.400;6.692;2023-12-04T02:24:48;0.50;77.90
78325;DHT22;67584;51.400;6.692;2023-12-04T02:27:23;0.60;77.70
78325;DHT22;67584;51.400;6.692;2023-12-04T02:29:59;0.60;76.80
78325;DHT22;67584;51.400;6.692;2023-12-04T02:32:29;0.60;76.90
78325;DHT22;67584;51.400;6.692;2023-12-04T02:34:57;0.60;77.00
78325;DHT22;67584;51.400;6.692;2023-12-04T02:37:23;0.70;77.50
78325;DHT22;67584;51.400;6.692;2023-12-04T02:39:50;0.60;76.70
78325;DHT22;67584;51.400;6.692;2023-12-04T02:42:24;0.80;76.40
78325;DHT22;67584;51.400;6.692;2023-12-04T02:44:53;0.60;76.70
78325;DHT22;67584;51.400;6.692;2023-12-04T02:47:18;0.60;76.60
78325;DHT22;67584;51.400;6.692;2023-12-04T02:49:44;0.70;76.70
78325;DHT22;67584;51.400;6.692;2023-12-04T02:52:10;0.60;76.10
78325;DHT22;67584;51.400;6.692;2023-12-04T02:54:36;0.60;76.10
78325;DHT22;67584;51.400;6.692;2023-12-04T02:57:02;0.50;76.30
78325;DHT22;67584;51.400;6.692;2023-12-04T02:59:27;0.60;76.00
78325;DHT22;67584;51.400;6.692;2023-12-04T03:01:53;0.70;76.10
78325;DHT22;67584;51.400;6.692;2023-12-04T03:04:19;0.60;76.40
78325;DHT22;67584;51.400;6.692;2023-12-04T03:06:45;0.60;75.80
78325;DHT22;67584;51.400;6.692;2023-12-04T03:09:11;0.80;75.80
78325;DHT22;67584;51.400;6.692;2023-12-04T03:11:39;0.60;76.00
78325;DHT22;67584;51.400;6.692;2023-12-04T03:14:05;0.80;74.90
78325;DHT22;67584;51.400;6.692;2023-12-04T03:16:31;0.70;75.30
78325;DHT22;67584;51.400;6.692;2023-12-04T03:18:57;0.80;75.40
78325;DHT22;67584;51.400;6.692;2023-12-04T03:21:23;0.70;75.30
78325;DHT22;67584;51.400;6.692;2023-12-04T03:23:48;0.70;75.00
78325;DHT22;67584;51.400;6.692;2023-12-04T03:26:14;0.60;75.00
78325;DHT22;67584;51.400;6.692;2023-12-04T03:28:40;0.70;74.70
78325;DHT22;67584;51.400;6.692;2023-12-04T03:31:06;0.80;75.30
78325;DHT22;67584;51.400;6.692;2023-12-04T03:33:32;0.70;75.30
78325;DHT22;67584;51.400;6.692;2023-12-04T03:35:59;0.60;75.00
78325;DHT22;67584;51.400;6.692;2023-12-04T03:38:25;0.90;74.80
78325;DHT22;67584;51.400;6.692;2023-12-04T03:40:50;0.80;75.00
78325;DHT22;67584;51.400;6.692;2023-12-04T03:43:16;0.80;75.10
78325;DHT22;67584;51.400;6.692;2023-12-04T03:45:41;0.70;75.40
78325;DHT22;67584;51.400;6.692;2023-12-04T03:48:07;0.60;74.90
78325;DHT22;67584;51.400;6.692;2023-12-04T03:50:33;0.80;74.10
78325;DHT22;67584;51.400;6.692;2023-12-04T03:52:59;0.80;74.50
78325;DHT22;67584;51.400;6.692;2023-12-04T03:55:24;0.80;74.20
78325;DHT22;67584;51.400;6.692;2023-12-04T03:57:50;0.80;73.90
78325;DHT22;67584;51.400;6.692;2023-12-04T04:00:16;0.80;74.20
78325;DHT22;67584;51.400;6.692;2023-12-04T04:02:43;0.80;74.20
78325;DHT22;67584;51.400;6.692;2023-12-04T04:05:09;0.80;73.40
78325;DHT22;67584;51.400;6.692;2023-12-04T04:07:35;0.80;73.80
78325;DHT22;67584;51.400;6.692;2023-12-04T04:10:00;0.70;74.20
78325;DHT22;67584;51.400;6.692;2023-12-04T04:12:27;0.70;73.60
78325;DHT22;67584;51.400;6.692;2023-12-04T04:14:53;0.90;73.90
78325;DHT22;67584;51.400;6.692;2023-12-04T04:17:18;0.70;74.60
78325;DHT22;67584;51.400;6.692;2023-12-04T04:19:44;0.90;73.60
78325;DHT22;67584;51.400;6.692;2023-12-04T04:22:10;0.70;74.20
78325;DHT22;67584;51.400;6.692;2023-12-04T04:24:36;0.80;73.40
78325;DHT22;67584;51.400;6.692;2023-12-04T04:27:02;0.90;72.90
78325;DHT22;67584;51.400;6.692;2023-12-04T04:29:27;0.80;73.70
78325;DHT22;67584;51.400;6.692;2023-12-04T04:31:53;0.80;74.00
78325;DHT22;67584;51.400;6.692;2023-12-04T04:34:21;0.60;72.60
78325;DHT22;67584;51.400;6.692;2023-12-04T04:36:46;0.90;72.50
78325;DHT22;67584;51.400;6.692;2023-12-04T04:39:13;0.90;72.60
78325;DHT22;67584;51.400;6.692;2023-12-04T04:41:41;0.70;72.00
78325;DHT22;67584;51.400;6.692;2023-12-04T04:44:06;0.70;72.70
78325;DHT22;67584;51.400;6.692;2023-12-04T04:46:32;1.00;71.50
78325;DHT22;67584;51.400;6.692;2023-12-04T04:48:57;0.80;72.10
78325;DHT22;67584;51.400;6.692;2023-12-04T04:51:23;0.70;72.40
78325;DHT22;67584;51.400;6.692;2023-12-04T04:53:49;0.80;73.10
78325;DHT22;67584;51.400;6.692;2023-12-04T04:56:15;0.70;71.90
78325;DHT22;67584;51.400;6.692;2023-12-04T04:58:41;0.70;72.30
78325;DHT22;67584;51.400;6.692;2023-12-04T05:01:07;0.80;72.00
78325;DHT22;67584;51.400;6.692;2023-12-04T05:03:33;0.80;71.70
78325;DHT22;67584;51.400;6.692;2023-12-04T05:05:59;0.70;72.60
78325;DHT22;67584;51.400;6.692;2023-12-04T05:08:24;0.70;72.30
78325;DHT22;67584;51.400;6.692;2023-12-04T05:10:50;0.80;72.60
78325;DHT22;67584;51.400;6.692;2023-12-04T05:13:16;0.90;71.10
78325;DHT22;67584;51.400;6.692;2023-12-04T05:15:41;0.70;71.30
78325;DHT22;67584;51.400;6.692;2023-12-04T05:18:07;0.90;71.90
78325;DHT22;67584;51.400;6.692;2023-12-04T05:20:33;0.70;71.40
78325;DHT22;67584;51.400;6.692;2023-12-04T05:22:58;0.60;71.40
78325;DHT22;67584;51.400;6.692;2023-12-04T05:25:24;0.90;71.90
78325;DHT22;67584;51.400;6.692;2023-12-04T05:27:50;0.70;71.90
78325;DHT22;67584;51.400;6.692;2023-12-04T05:30:16;0.70;72.40
78325;DHT22;67584;51.400;6.692;2023-12-04T05:32:41;0.70;72.60
78325;DHT22;67584;51.400;6.692;2023-12-04T05:35:07;0.60;72.00
78325;DHT22;67584;51.400;6.692;2023-12-04T05:37:33;0.70;72.30
78325;DHT22;67584;51.400;6.692;2023-12-04T05:39:58;0.60;72.40
78325;DHT22;67584;51.400;6.692;2023-12-04T05:42:24;0.80;73.00
78325;DHT22;67584;51.400;6.692;2023-12-04T05:44:49;0.80;73.10
78325;DHT22;67584;51.400;6.692;2023-12-04T05:47:15;0.60;73.10
78325;DHT22;67584;51.400;6.692;2023-12-04T05:49:41;0.60;73.30
78325;DHT22;67584;51.400;6.692;2023-12-04T05:52:07;0.70;73.10
78325;DHT22;67584;51.400;6.692;2023-12-04T05:54:32;0.70;73.70
78325;DHT22;67584;51.400;6.692;2023-12-04T05:56:58;0.60;73.40
78325;DHT22;67584;51.400;6.692;2023-12-04T05:59:24;0.80;73.30
78325;DHT22;67584;51.400;6.692;2023-12-04T06:01:49;0.90;73.50
78325;DHT22;67584;51.400;6.692;2023-12-04T06:04:15;0.70;73.40
78325;DHT22;67584;51.400;6.692;2023-12-04T06:06:41;0.90;73.90
78325;DHT22;67584;51.400;6.692;2023-12-04T06:09:06;0.60;73.30
78325;DHT22;67584;51.400;6.692;2023-12-04T06:11:32;0.70;73.80
78325;DHT22;67584;51.400;6.692;2023-12-04T06:13:58;0.60;73.60
78325;DHT22;67584;51.400;6.692;2023-12-04T06:16:23;0.50;73.90
78325;DHT22;67584;51.400;6.692;2023-12-04T06:18:49;0.60;73.20
78325;DHT22;67584;51.400;6.692;2023-12-04T06:21:15;0.60;73.10
78325;DHT22;67584;51.400;6.692;2023-12-04T06:23:41;0.70;73.60
78325;DHT22;67584;51.400;6.692;2023-12-04T06:26:07;0.60;72.90
78325;DHT22;67584;51.400;6.692;2023-12-04T06:28:34;0.70;73.70
78325;DHT22;67584;51.400;6.692;2023-12-04T06:31:00;0.80;73.20
78325;DHT22;67584;51.400;6.692;2023-12-04T06:33:26;0.80;73.60
78325;DHT22;67584;51.400;6.692;2023-12-04T06:35:52;0.70;73.10
78325;DHT22;67584;51.400;6.692;2023-12-04T06:38:19;0.80;72.80
78325;DHT22;67584;51.400;6.692;2023-12-04T06:40:46;0.80;72.90
78325;DHT22;67584;51.400;6.692;2023-12-04T06:43:12;0.70;72.70
78325;DHT22;67584;51.400;6.692;2023-12-04T06:45:38;0.90;73.20
78325;DHT22;67584;51.400;6.692;2023-12-04T06:48:04;0.70;72.30
78325;DHT22;67584;51.400;6.692;2023-12-04T06:50:30;0.80;73.00
78325;DHT22;67584;51.400;6.692;2023-12-04T06:52:55;0.70;73.00
78325;DHT22;67584;51.400;6.692;2023-12-04T06:55:21;0.50;73.40
78325;DHT22;67584;51.400;6.692;2023-12-04T06:57:47;0.80;73.40
78325;DHT22;67584;51.400;6.692;2023-12-04T07:00:13;0.80;73.00
78325;DHT22;67584;51.400;6.692;2023-12-04T07:02:40;0.80;72.30
78325;DHT22;67584;51.400;6.692;2023-12-04T07:05:06;0.60;73.10
78325;DHT22;67584;51.400;6.692;2023-12-04T07:07:32;0.60;73.00
78325;DHT22;67584;51.400;6.692;2023-12-04T07:09:58;0.80;72.30
78325;DHT22;67584;51.400;6.692;2023-12-04T07:12:23;1.20;73.40
78325;DHT22;67584;51.400;6.692;2023-12-04T07:14:49;1.00;72.90
78325;DHT22;67584;51.400;6.692;2023-12-04T07:17:15;0.90;72.50
78325;DHT22;67584;51.400;6.692;2023-12-04T07:19:41;1.00;72.80
78325;DHT22;67584;51.400;6.692;2023-12-04T07:22:07;0.80;72.30
78325;DHT22;67584;51.400;6.692;2023-12-04T07:24:33;1.00;72.80
78325;DHT22;67584;51.400;6.692;2023-12-04T07:26:59;0.80;73.10
78325;DHT22;67584;51.400;6.692;2023-12-04T07:29:24;0.90;72.90
78325;DHT22;67584;51.400;6.692;2023-12-04T07:31:51;0.90;73.20
78325;DHT22;67584;51.400;6.692;2023-12-04T07:34:17;0.90;73.00
78325;DHT22;67584;51.400;6.692;2023-12-04T07:36:42;0.90;73.10
78325;DHT22;67584;51.400;6.692;2023-12-04T07:39:10;0.80;73.20
78325;DHT22;67584;51.400;6.692;2023-12-04T07:41:36;0.80;72.90
78325;DHT22;67584;51.400;6.692;2023-12-04T07:44:02;1.00;73.20
78325;DHT22;67584;51.400;6.692;2023-12-04T07:46:29;1.00;72.80
78325;DHT22;67584;51.400;6.692;2023-12-04T07:48:55;1.00;73.00
78325;DHT22;67584;51.400;6.692;2023-12-04T07:51:20;0.90;71.90
78325;DHT22;67584;51.400;6.692;2023-12-04T07:53:46;0.90;71.70
78325;DHT22;67584;51.400;6.692;2023-12-04T07:56:13;1.20;71.50
78325;DHT22;67584;51.400;6.692;2023-12-04T07:58:38;1.00;71.90
78325;DHT22;67584;51.400;6.692;2023-12-04T08:01:04;1.10;72.90
78325;DHT22;67584;51.400;6.692;2023-12-04T08:03:31;1.10;73.10
78325;DHT22;67584;51.400;6.692;2023-12-04T08:05:57;1.10;72.30
78325;DHT22;67584;51.400;6.692;2023-12-04T08:08:24;1.10;72.40
78325;DHT22;67584;51.400;6.692;2023-12-04T08:10:50;1.20;71.80
78325;DHT22;67584;51.400;6.692;2023-12-04T08:13:16;1.10;71.20
78325;DHT22;67584;51.400;6.692;2023-12-04T08:15:42;1.30;71.20
78325;DHT22;67584;51.400;6.692;2023-12-04T08:18:08;1.30;70.90
78325;DHT22;67584;51.400;6.692;2023-12-04T08:20:34;1.40;70.10
78325;DHT22;67584;51.400;6.692;2023-12-04T08:22:59;1.40;70.10
78325;DHT22;67584;51.400;6.692;2023-12-04T08:25:25;1.30;71.50
78325;DHT22;67584;51.400;6.692;2023-12-04T08:27:51;1.60;70.80
78325;DHT22;67584;51.400;6.692;2023-12-04T08:30:17;1.50;71.00
78325;DHT22;67584;51.400;6.692;2023-12-04T08:32:43;1.60;70.20
78325;DHT22;67584;51.400;6.692;2023-12-04T08:35:08;1.30;69.80
78325;DHT22;67584;51.400;6.692;2023-12-04T08:37:34;1.50;68.10
78325;DHT22;67584;51.400;6.692;2023-12-04T08:40:00;1.70;68.70
78325;DHT22;67584;51.400;6.692;2023-12-04T08:42:26;1.70;67.80
78325;DHT22;67584;51.400;6.692;2023-12-04T08:44:52;1.70;69.10
78325;DHT22;67584;51.400;6.692;2023-12-04T08:47:17;1.70;69.00
78325;DHT22;67584;51.400;6.692;2023-12-04T08:49:43;1.80;68.00
78325;DHT22;67584;51.400;6.692;2023-12-04T08:52:09;1.80;68.00
78325;DHT22;67584;51.400;6.692;2023-12-04T08:54:39;1.60;67.80
78325;DHT22;67584;51.400;6.692;2023-12-04T08:57:05;1.80;67.30
78325;DHT22;67584;51.400;6.692;2023-12-04T08:59:30;1.90;66.30
78325;DHT22;67584;51.400;6.692;2023-12-04T09:01:56;2.10;64.90
78325;DHT22;67584;51.400;6.692;2023-12-04T09:04:22;2.00;63.20
78325;DHT22;67584;51.400;6.692;2023-12-04T09:06:47;2.20;64.50
78325;DHT22;67584;51.400;6.692;2023-12-04T09:09:14;2.20;65.40
78325;DHT22;67584;51.400;6.692;2023-12-04T09:11:42;2.20;65.00
78325;DHT22;67584;51.400;6.692;2023-12-04T09:14:08;2.00;65.50
78325;DHT22;67584;51.400;6.692;2023-12-04T09:16:34;2.10;65.70
78325;DHT22;67584;51.400;6.692;2023-12-04T09:19:00;2.10;63.70
78325;DHT22;67584;51.400;6.692;2023-12-04T09:21:25;2.10;64.90
78325;DHT22;67584;51.400;6.692;2023-12-04T09:23:52;2.10;65.10
78325;DHT22;67584;51.400;6.692;2023-12-04T09:26:18;2.00;64.40
78325;DHT22;67584;51.400;6.692;2023-12-04T09:28:44;2.00;64.80
78325;DHT22;67584;51.400;6.692;2023-12-04T09:31:09;2.00;63.10
78325;DHT22;67584;51.400;6.692;2023-12-04T09:33:35;2.10;63.70
78325;DHT22;67584;51.400;6.692;2023-12-04T09:36:02;2.20;64.70
78325;DHT22;67584;51.400;6.692;2023-12-04T09:38:28;2.10;64.70
78325;DHT22;67584;51.400;6.692;2023-12-04T09:40:59;2.10;64.70
78325;DHT22;67584;51.400;6.692;2023-12-04T09:43:31;2.10;63.90
78325;DHT22;67584;51.400;6.692;2023-12-04T09:45:58;2.50;63.80
78325;DHT22;67584;51.400;6.692;2023-12-04T09:48:27;2.50;64.10
78325;DHT22;67584;51.400;6.692;2023-12-04T09:50:54;2.40;63.70
78325;DHT22;67584;51.400;6.692;2023-12-04T09:53:20;2.60;64.00
78325;DHT22;67584;51.400;6.692;2023-12-04T09:55:49;2.60;63.50
78325;DHT22;67584;51.400;6.692;2023-12-04T09:58:19;2.80;63.70
78325;DHT22;67584;51.400;6.692;2023-12-04T10:00:45;2.50;64.00
78325;DHT22;67584;51.400;6.692;2023-12-04T10:03:11;2.40;63.30
78325;DHT22;67584;51.400;6.692;2023-12-04T10:05:38;2.30;63.30
78325;DHT22;67584;51.400;6.692;2023-12-04T10:08:08;2.40;63.30
78325;DHT22;67584;51.400;6.692;2023-12-04T10:10:33;2.50;62.30
78325;DHT22;67584;51.400;6.692;2023-12-04T10:13:00;2.40;62.10
78325;DHT22;67584;51.400;6.692;2023-12-04T10:15:25;2.50;62.80
78325;DHT22;67584;51.400;6.692;2023-12-04T10:17:52;2.50;63.30
78325;DHT22;67584;51.400;6.692;2023-12-04T10:20:20;2.70;63.40
78325;DHT22;67584;51.400;6.692;2023-12-04T10:23:00;2.60;63.10
78325;DHT22;67584;51.400;6.692;2023-12-04T10:25:28;2.60;62.50
78325;DHT22;67584;51.400;6.692;2023-12-04T10:28:10;2.40;64.10
78325;DHT22;67584;51.400;6.692;2023-12-04T10:30:36;2.60;63.30
78325;DHT22;67584;51.400;6.692;2023-12-04T10:33:04;2.50;63.10
78325;DHT22;67584;51.400;6.692;2023-12-04T10:35:32;2.40;63.90
78325;DHT22;67584;51.400;6.692;2023-12-04T10:37:59;2.50;63.50
78325;DHT22;67584;51.400;6.692;2023-12-04T10:40:27;2.60;63.40
78325;DHT22;67584;51.400;6.692;2023-12-04T10:43:14;2.70;62.80
78325;DHT22;67584;51.400;6.692;2023-12-04T10:45:40;2.50;63.30
78325;DHT22;67584;51.400;6.692;2023-12-04T10:48:07;2.60;64.50
78325;DHT22;67584;51.400;6.692;2023-12-04T10:50:38;2.40;64.80
78325;DHT22;67584;51.400;6.692;2023-12-04T10:53:08;2.70;64.20
78325;DHT22;67584;51.400;6.692;2023-12-04T10:55:35;2.90;62.90
78325;DHT22;67584;51.400;6.692;2023-12-04T10:58:02;2.50;63.10
78325;DHT22;67584;51.400;6.692;2023-12-04T11:00:34;2.50;63.80
78325;DHT22;67584;51.400;6.692;2023-12-04T11:03:07;2.80;63.70
78325;DHT22;67584;51.400;6.692;2023-12-04T11:05:37;2.70;64.00
78325;DHT22;67584;51.400;6.692;2023-12-04T11:08:09;2.60;64.10
78325;DHT22;67584;51.400;6.692;2023-12-04T11:11:03;2.80;64.40
78325;DHT22;67584;51.400;6.692;2023-12-04T11:13:35;2.80;65.10
78325;DHT22;67584;51.400;6.692;2023-12-04T11:16:12;2.90;64.90
78325;DHT22;67584;51.400;6.692;2023-12-04T11:18:43;3.00;63.20
78325;DHT22;67584;51.400;6.692;2023-12-04T11:21:10;3.00;64.50
78325;DHT22;67584;51.400;6.692;2023-12-04T11:23:37;3.00;64.30
78325;DHT22;67584;51.400;6.692;2023-12-04T11:26:05;2.90;64.70
78325;DHT22;67584;51.400;6.692;2023-12-04T11:28:32;3.10;65.60
78325;DHT22;67584;51.400;6.692;2023-12-04T11:30:59;3.10;65.40
78325;DHT22;67584;51.400;6.692;2023-12-04T11:33:26;3.10;64.70
78325;DHT22;67584;51.400;6.692;2023-12-04T11:35:52;3.00;66.30
78325;DHT22;67584;51.400;6.692;2023-12-04T11:38:18;3.20;67.40
78325;DHT22;67584;51.400;6.692;2023-12-04T11:40:46;3.00;67.30
78325;DHT22;67584;51.400;6.692;2023-12-04T11:43:32;2.90;68.70
78325;DHT22;67584;51.400;6.692;2023-12-04T11:46:08;2.90;69.80
78325;DHT22;67584;51.400;6.692;2023-12-04T11:48:34;2.80;71.50
78325;DHT22;67584;51.400;6.692;2023-12-04T11:51:00;2.50;70.80
78325;DHT22;67584;51.400;6.692;2023-12-04T11:53:26;2.70;72.70
78325;DHT22;67584;51.400;6.692;2023-12-04T11:55:55;2.70;72.40
78325;DHT22;67584;51.400;6.692;2023-12-04T11:58:22;2.70;73.90
78325;DHT22;67584;51.400;6.692;2023-12-04T12:00:48;2.40;73.80
78325;DHT22;67584;51.400;6.692;2023-12-04T12:03:15;2.60;74.60
78325;DHT22;67584;51.400;6.692;2023-12-04T12:05:41;2.60;75.50
78325;DHT22;67584;51.400;6.692;2023-12-04T12:08:08;2.50;76.20
78325;DHT22;67584;51.400;6.692;2023-12-04T12:10:34;2.60;76.30
78325;DHT22;67584;51.400;6.692;2023-12-04T12:13:00;2.60;76.60
78325;DHT22;67584;51.400;6.692;2023-12-04T12:15:27;2.50;77.00
78325;DHT22;67584;51.400;6.692;2023-12-04T12:17:53;2.60;77.50
78325;DHT22;67584;51.400;6.692;2023-12-04T12:20:19;2.60;76.70
78325;DHT22;67584;51.400;6.692;2023-12-04T12:22:49;2.60;76.60
78325;DHT22;67584;51.400;6.692;2023-12-04T12:25:15;2.70;76.80
78325;DHT22;67584;51.400;6.692;2023-12-04T12:27:41;2.60;76.90
78325;DHT22;67584;51.400;6.692;2023-12-04T12:30:08;2.50;77.20
78325;DHT22;67584;51.400;6.692;2023-12-04T12:32:34;2.50;77.50
78325;DHT22;67584;51.400;6.692;2023-12-04T12:35:01;2.50;78.10
78325;DHT22;67584;51.400;6.692;2023-12-04T12:37:26;2.40;78.30
78325;DHT22;67584;51.400;6.692;2023-12-04T12:39:53;2.40;79.00
78325;DHT22;67584;51.400;6.692;2023-12-04T12:42:29;2.20;79.30
78325;DHT22;67584;51.400;6.692;2023-12-04T12:44:55;2.30;79.80
78325;DHT22;67584;51.400;6.692;2023-12-04T12:47:22;2.20;79.90
78325;DHT22;67584;51.400;6.692;2023-12-04T12:49:48;2.20;80.50
78325;DHT22;67584;51.400;6.692;2023-12-04T12:52:15;2.20;81.00
78325;DHT22;67584;51.400;6.692;2023-12-04T12:54:42;2.00;81.40
78325;DHT22;67584;51.400;6.692;2023-12-04T12:57:08;2.30;81.40
78325;DHT22;67584;51.400;6.692;2023-12-04T12:59:40;2.50;81.30
78325;DHT22;67584;51.400;6.692;2023-12-04T13:02:06;2.30;81.30
78325;DHT22;67584;51.400;6.692;2023-12-04T13:04:42;2.40;81.20
78325;DHT22;67584;51.400;6.692;2023-12-04T13:07:08;2.50;80.80
78325;DHT22;67584;51.400;6.692;2023-12-04T13:09:34;2.60;81.00
78325;DHT22;67584;51.400;6.692;2023-12-04T13:12:07;2.60;81.30
78325;DHT22;67584;51.400;6.692;2023-12-04T13:14:34;2.40;81.30
78325;DHT22;67584;51.400;6.692;2023-12-04T13:17:01;2.50;81.10
78325;DHT22;67584;51.400;6.692;2023-12-04T13:19:27;2.50;81.80
78325;DHT22;67584;51.400;6.692;2023-12-04T13:21:52;2.40;81.90
78325;DHT22;67584;51.400;6.692;2023-12-04T13:24:18;2.40;82.20
78325;DHT22;67584;51.400;6.692;2023-12-04T13:26:44;2.30;82.00
78325;DHT22;67584;51.400;6.692;2023-12-04T13:29:11;2.10;82.50
78325;DHT22;67584;51.400;6.692;2023-12-04T13:31:37;2.20;82.90
78325;DHT22;67584;51.400;6.692;2023-12-04T13:34:03;2.30;83.00
78325;DHT22;67584;51.400;6.692;2023-12-04T13:36:32;2.30;83.00
78325;DHT22;67584;51.400;6.692;2023-12-04T13:38:58;2.30;82.90
78325;DHT22;67584;51.400;6.692;2023-12-04T13:41:24;2.30;83.20
78325;DHT22;67584;51.400;6.692;2023-12-04T13:44:08;2.40;83.20
78325;DHT22;67584;51.400;6.692;2023-12-04T13:46:34;2.30;82.80
78325;DHT22;67584;51.400;6.692;2023-12-04T13:48:59;2.10;83.20
78325;DHT22;67584;51.400;6.692;2023-12-04T13:51:25;2.20;83.20
78325;DHT22;67584;51.400;6.692;2023-12-04T13:53:53;2.30;83.20
78325;DHT22;67584;51.400;6.692;2023-12-04T13:56:22;2.10;83.40
78325;DHT22;67584;51.400;6.692;2023-12-04T13:59:00;2.30;83.20
78325;DHT22;67584;51.400;6.692;2023-12-04T14:01:29;2.40;82.90
78325;DHT22;67584;51.400;6.692;2023-12-04T14:03:56;2.20;82.80
78325;DHT22;67584;51.400;6.692;2023-12-04T14:06:30;2.40;82.30
78325;DHT22;67584;51.400;6.692;2023-12-04T14:08:56;2.40;82.70
78325;DHT22;67584;51.400;6.692;2023-12-04T14:11:22;2.50;82.60
78325;DHT22;67584;51.400;6.692;2023-12-04T14:13:47;2.30;82.50
78325;DHT22;67584;51.400;6.692;2023-12-04T14:16:13;2.30;82.20
78325;DHT22;67584;51.400;6.692;2023-12-04T14:18:41;2.40;82.60
78325;DHT22;67584;51.400;6.692;2023-12-04T14:21:10;2.50;82.20
78325;DHT22;67584;51.400;6.692;2023-12-04T14:23:36;2.60;82.50
78325;DHT22;67584;51.400;6.692;2023-12-04T14:26:02;2.40;82.30
78325;DHT22;67584;51.400;6.692;2023-12-04T14:28:28;2.70;82.20
78325;DHT22;67584;51.400;6.692;2023-12-04T14:30:55;2.30;81.90
78325;DHT22;67584;51.400;6.692;2023-12-04T14:33:21;2.40;82.10
78325;DHT22;67584;51.400;6.692;2023-12-04T14:35:47;2.50;81.90
78325;DHT22;67584;51.400;6.692;2023-12-04T14:38:13;2.50;81.60
78325;DHT22;67584;51.400;6.692;2023-12-04T14:40:40;2.50;81.90
78325;DHT22;67584;51.400;6.692;2023-12-04T14:43:05;2.50;82.20
78325;DHT22;67584;51.400;6.692;2023-12-04T14:45:36;2.60;82.00
78325;DHT22;67584;51.400;6.692;2023-12-04T14:48:05;2.20;82.20
78325;DHT22;67584;51.400;6.692;2023-12-04T14:50:35;2.50;82.20
78325;DHT22;67584;51.400;6.692;2023-12-04T14:53:03;2.40;82.10
78325;DHT22;67584;51.400;6.692;2023-12-04T14:56:01;2.40;81.90
78325;DHT22;67584;51.400;6.692;2023-12-04T14:58:47;2.50;81.90
78325;DHT22;67584;51.400;6.692;2023-12-04T15:01:38;2.50;81.70
78325;DHT22;67584;51.400;6.692;2023-12-04T15:04:22;2.50;81.40
78325;DHT22;67584;51.400;6.692;2023-12-04T15:06:54;2.60;81.00
78325;DHT22;67584;51.400;6.692;2023-12-04T15:09:38;2.50;81.10
78325;DHT22;67584;51.400;6.692;2023-12-04T15:12:23;2.40;80.90
78325;DHT22;67584;51.400;6.692;2023-12-04T15:15:00;2.40;81.50
78325;DHT22;67584;51.400;6.692;2023-12-04T15:17:45;2.40;81.70
78325;DHT22;67584;51.400;6.692;2023-12-04T15:20:16;2.30;81.70
78325;DHT22;67584;51.400;6.692;2023-12-04T15:22:58;2.20;82.00
78325;DHT22;67584;51.400;6.692;2023-12-04T15:25:23;2.10;82.80
78325;DHT22;67584;51.400;6.692;2023-12-04T15:27:49;2.00;82.90
78325;DHT22;67584;51.400;6.692;2023-12-04T15:30:16;2.10;82.90
78325;DHT22;67584;51.400;6.692;2023-12-04T15:32:42;2.00;83.40
78325;DHT22;67584;51.400;6.692;2023-12-04T15:35:07;2.00;83.00
78325;DHT22;67584;51.400;6.692;2023-12-04T15:37:35;1.80;83.20
78325;DHT22;67584;51.400;6.692;2023-12-04T15:40:01;2.00;83.20
78325;DHT22;67584;51.400;6.692;2023-12-04T15:42:26;1.90;83.50
78325;DHT22;67584;51.400;6.692;2023-12-04T15:44:54;2.00;83.50